Time,TemperatureF,DewpointF,PressureIn,WindDirection,WindDirectionDegrees,WindSpeedMPH,WindSpeedGustMPH,Humidity,HourlyPrecipIn,Conditions,Clouds,dailyrainin,SoftwareType,DateUTC
2013-03-19 00:03:00,27.1,26.9,29.99,ENE,67,5.1,-999.0,99,-99.99,,,0.00,Acu-Link.com,2013-03-19 04:03:00,
2013-03-19 00:18:00,26.8,26.5,29.98,ESE,112,3.1,-999.0,99,-99.99,,,0.00,Acu-Link.com,2013-03-19 04:18:00,
2013-03-19 00:33:00,26.8,26.5,29.97,SE,135,5.1,-999.0,99,-99.99,,,0.00,Acu-Link.com,2013-03-19 04:33:00,
2013-03-19 00:48:00,26.6,26.4,29.95,SSE,157,5.1,-999.0,99,-99.99,,,0.00,Acu-Link.com,2013-03-19 04:48:00,
2013-03-19 01:04:00,26.6,26.4,29.94,East,90,4.7,-999.0,99,-99.99,,,0.00,Acu-Link.com,2013-03-19 05:04:00,
2013-03-19 01:19:00,26.6,26.4,29.94,SE,135,6.7,-999.0,99,-99.99,,,0.00,Acu-Link.com,2013-03-19 05:19:00,
2013-03-19 01:34:00,26.6,26.4,29.93,ESE,112,4.3,-999.0,99,-99.99,,,0.00,Acu-Link.com,2013-03-19 05:34:00,
2013-03-19 01:49:00,26.6,26.4,29.91,East,90,4.3,-999.0,99,-99.99,,,0.00,Acu-Link.com,2013-03-19 05:49:00,
2013-03-19 02:05:00,26.6,26.4,29.90,ENE,67,3.1,-999.0,99,-99.99,,,0.00,Acu-Link.com,2013-03-19 06:05:00,
2013-03-19 02:20:00,26.6,26.4,29.89,ESE,112,3.1,-999.0,99,-99.99,,,0.00,Acu-Link.com,2013-03-19 06:20:00,
2013-03-19 02:35:00,26.6,26.4,29.88,ESE,112,3.8,-999.0,99,-99.99,,,0.00,Acu-Link.com,2013-03-19 06:35:00,
2013-03-19 02:50:00,26.6,26.4,29.87,NE,45,3.1,-999.0,99,-99.99,,,0.00,Acu-Link.com,2013-03-19 06:50:00,
2013-03-19 03:05:00,26.6,26.4,44.19,ESE,112,3.8,-999.0,99,-99.99,,,0.00,Acu-Link.com,2013-03-19 07:05:00,
2013-03-19 03:21:00,26.6,26.4,29.86,NE,45,2.7,-999.0,99,-99.99,,,0.00,Acu-Link.com,2013-03-19 07:21:00,
2013-03-19 03:36:00,26.6,26.4,29.85,East,90,3.8,-999.0,99,-99.99,,,0.00,Acu-Link.com,2013-03-19 07:36:00,
2013-03-19 04:06:00,26.8,26.5,29.84,East,90,3.8,-999.0,99,-99.99,,,0.00,Acu-Link.com,2013-03-19 08:06:00,
2013-03-19 04:22:00,27.0,26.7,29.83,East,90,4.3,-999.0,99,-99.99,,,0.00,Acu-Link.com,2013-03-19 08:22:00,
2013-03-19 04:37:00,27.0,26.7,29.82,ESE,112,4.3,-999.0,99,-99.99,,,0.00,Acu-Link.com,2013-03-19 08:37:00,
2013-03-19 04:52:00,27.1,26.9,29.81,East,90,4.3,-999.0,99,-99.99,,,0.00,Acu-Link.com,2013-03-19 08:52:00,
2013-03-19 05:07:00,27.1,26.9,29.82,ESE,112,4.3,-999.0,99,-99.99,,,0.00,Acu-Link.com,2013-03-19 09:07:00,
2013-03-19 05:22:00,27.3,27.1,29.82,ESE,112,3.8,-999.0,99,-99.99,,,0.00,Acu-Link.com,2013-03-19 09:22:00,
2013-03-19 05:38:00,27.3,27.1,29.81,ENE,67,4.3,-999.0,99,-99.99,,,0.00,Acu-Link.com,2013-03-19 09:38:00,
2013-03-19 05:53:00,27.5,27.3,29.81,ENE,67,3.8,-999.0,99,-99.99,,,0.00,Acu-Link.com,2013-03-19 09:53:00,
2013-03-19 06:08:00,27.5,27.3,29.80,ESE,112,5.8,-999.0,99,-99.99,,,0.00,Acu-Link.com,2013-03-19 10:08:00,
2013-03-19 06:23:00,27.5,27.3,29.79,ESE,112,4.7,-999.0,99,-99.99,,,0.00,Acu-Link.com,2013-03-19 10:23:00,
2013-03-19 06:38:00,27.9,27.6,29.78,East,90,4.3,-999.0,99,-99.99,,,0.00,Acu-Link.com,2013-03-19 10:38:00,
2013-03-19 07:09:00,28.8,28.5,29.77,ESE,112,4.7,-999.0,99,-99.99,,,0.00,Acu-Link.com,2013-03-19 11:09:00,
2013-03-19 07:24:00,29.1,28.9,29.76,SE,135,5.1,-999.0,99,-99.99,,,0.00,Acu-Link.com,2013-03-19 11:24:00,
2013-03-19 07:39:00,29.1,28.9,29.75,East,90,11.0,-999.0,99,-99.99,,,0.00,Acu-Link.com,2013-03-19 11:39:00,
2013-03-19 07:54:00,29.5,29.2,29.75,ESE,112,5.1,-999.0,99,-99.99,,,0.00,Acu-Link.com,2013-03-19 11:54:00,
2013-03-19 08:10:00,29.5,29.2,29.75,ESE,112,6.7,-999.0,99,-99.99,,,0.00,Acu-Link.com,2013-03-19 12:10:00,
2013-03-19 08:25:00,29.7,29.4,29.74,ESE,112,5.1,-999.0,99,-99.99,,,0.00,Acu-Link.com,2013-03-19 12:25:00,
2013-03-19 08:40:00,29.7,29.4,29.72,ESE,112,4.7,-999.0,99,-99.99,,,0.00,Acu-Link.com,2013-03-19 12:40:00,
2013-03-19 08:55:00,29.8,29.6,29.72,ESE,112,5.8,-999.0,99,-99.99,,,0.00,Acu-Link.com,2013-03-19 12:55:00,
2013-03-19 09:10:00,30.2,30.0,29.72,NE,45,5.1,-999.0,99,-99.99,,,0.00,Acu-Link.com,2013-03-19 13:10:00,
2013-03-19 09:41:00,30.6,30.3,29.70,East,90,6.3,-999.0,99,-99.99,,,0.00,Acu-Link.com,2013-03-19 13:41:00,
2013-03-19 09:56:00,30.7,30.5,29.70,ENE,67,6.7,-999.0,99,-99.99,,,0.00,Acu-Link.com,2013-03-19 13:56:00,
2013-03-19 10:11:00,31.1,30.9,29.69,East,90,6.7,-999.0,99,-99.99,,,0.00,Acu-Link.com,2013-03-19 14:11:00,
2013-03-19 10:27:00,31.3,31.0,29.68,East,90,11.4,-999.0,99,-99.99,,,0.00,Acu-Link.com,2013-03-19 14:27:00,
2013-03-19 10:42:00,31.5,31.2,29.67,East,90,8.3,-999.0,99,-99.99,,,0.00,Acu-Link.com,2013-03-19 14:42:00,
2013-03-19 10:57:00,32.0,31.8,29.66,ESE,112,4.7,-999.0,99,-99.99,,,0.00,Acu-Link.com,2013-03-19 14:57:00,
2013-03-19 11:12:00,32.0,31.8,29.64,NE,45,7.4,-999.0,99,-99.99,,,0.00,Acu-Link.com,2013-03-19 15:12:00,
2013-03-19 11:27:00,32.0,31.8,29.64,East,90,8.9,-999.0,99,-99.99,,,0.00,Acu-Link.com,2013-03-19 15:27:00,
2013-03-19 11:43:00,32.2,31.9,29.63,ESE,112,8.3,-999.0,99,-99.99,,,0.00,Acu-Link.com,2013-03-19 15:43:00,
2013-03-19 11:58:00,32.5,32.3,29.61,NE,45,8.9,-999.0,99,-99.99,,,0.00,Acu-Link.com,2013-03-19 15:58:00,
2013-03-19 12:13:00,32.9,32.7,29.60,ESE,112,7.8,-999.0,99,-99.99,,,0.00,Acu-Link.com,2013-03-19 16:13:00,
2013-03-19 12:28:00,33.1,32.8,29.60,ENE,67,6.7,-999.0,99,-99.99,,,0.00,Acu-Link.com,2013-03-19 16:28:00,
2013-03-19 12:43:00,32.9,32.7,29.58,ENE,67,8.9,-999.0,99,-99.99,,,0.00,Acu-Link.com,2013-03-19 16:43:00,
2013-03-19 12:59:00,32.7,32.5,29.58,ESE,112,6.7,-999.0,99,-99.99,,,0.00,Acu-Link.com,2013-03-19 16:59:00,
2013-03-19 13:14:00,32.9,32.7,29.55,NE,45,5.8,-999.0,99,-99.99,,,0.00,Acu-Link.com,2013-03-19 17:14:00,
2013-03-19 13:29:00,32.4,32.1,29.54,East,90,5.8,-999.0,99,-99.99,,,0.00,Acu-Link.com,2013-03-19 17:29:00,
2013-03-19 13:44:00,32.2,31.9,29.53,ESE,112,8.3,-999.0,99,-99.99,,,0.00,Acu-Link.com,2013-03-19 17:44:00,
2013-03-19 14:00:00,32.2,31.9,29.54,WNW,292,4.3,-999.0,99,-99.99,,,0.00,Acu-Link.com,2013-03-19 18:00:00,
2013-03-19 14:15:00,32.2,31.9,29.58,NW,315,4.3,-999.0,99,-99.99,,,0.00,Acu-Link.com,2013-03-19 18:15:00,
2013-03-19 14:30:00,32.0,31.8,29.58,NNW,337,3.8,-999.0,99,-99.99,,,0.00,Acu-Link.com,2013-03-19 18:30:00,
2013-03-19 14:45:00,32.2,31.9,29.55,North,0,6.7,-999.0,99,-99.99,,,0.00,Acu-Link.com,2013-03-19 18:45:00,
2013-03-19 15:00:00,32.2,31.9,29.53,NE,45,4.3,-999.0,99,-99.99,,,0.00,Acu-Link.com,2013-03-19 19:00:00,
2013-03-19 15:16:00,32.2,31.9,29.53,NNE,22,3.1,-999.0,99,-99.99,,,0.00,Acu-Link.com,2013-03-19 19:16:00,
2013-03-19 15:31:00,31.8,31.6,29.53,NE,45,5.1,-999.0,99,-99.99,,,0.00,Acu-Link.com,2013-03-19 19:31:00,
2013-03-19 15:46:00,32.2,31.9,29.48,ESE,112,5.8,-999.0,99,-99.99,,,0.00,Acu-Link.com,2013-03-19 19:46:00,
2013-03-19 16:01:00,32.4,32.1,29.46,ENE,67,3.8,-999.0,99,-99.99,,,0.00,Acu-Link.com,2013-03-19 20:01:00,
2013-03-19 16:16:00,32.5,32.3,29.45,NNW,337,4.7,-999.0,99,-99.99,,,0.00,Acu-Link.com,2013-03-19 20:16:00,
2013-03-19 16:32:00,32.2,31.9,29.45,NNW,337,4.3,-999.0,99,-99.99,,,0.00,Acu-Link.com,2013-03-19 20:32:00,
2013-03-19 17:02:00,32.2,31.9,29.44,North,0,4.3,-999.0,99,-99.99,,,0.00,Acu-Link.com,2013-03-19 21:02:00,
2013-03-19 17:17:00,32.0,31.8,29.44,NNW,337,3.1,-999.0,99,-99.99,,,0.00,Acu-Link.com,2013-03-19 21:17:00,
2013-03-19 17:33:00,31.8,31.6,29.44,NE,45,3.8,-999.0,99,-99.99,,,0.00,Acu-Link.com,2013-03-19 21:33:00,
2013-03-19 17:48:00,31.6,31.4,29.44,North,0,4.7,-999.0,99,-99.99,,,0.00,Acu-Link.com,2013-03-19 21:48:00,
2013-03-19 18:03:00,31.5,31.2,29.43,West,270,3.1,-999.0,99,-99.99,,,0.00,Acu-Link.com,2013-03-19 22:03:00,
2013-03-19 18:18:00,31.5,31.2,29.43,NNW,337,3.8,-999.0,99,-99.99,,,0.00,Acu-Link.com,2013-03-19 22:18:00,
2013-03-19 18:33:00,31.3,31.0,29.43,NE,45,2.7,-999.0,99,-99.99,,,0.00,Acu-Link.com,2013-03-19 22:33:00,
2013-03-19 18:49:00,31.1,30.9,29.44,NNW,337,2.2,-999.0,99,-99.99,,,0.00,Acu-Link.com,2013-03-19 22:49:00,
2013-03-19 19:04:00,31.1,30.9,29.45,NNW,337,2.7,-999.0,99,-99.99,,,0.00,Acu-Link.com,2013-03-19 23:04:00,
2013-03-19 19:19:00,30.7,30.5,29.45,NW,315,2.2,-999.0,99,-99.99,,,0.00,Acu-Link.com,2013-03-19 23:19:00,
2013-03-19 19:34:00,30.6,30.3,29.45,WNW,292,2.2,-999.0,99,-99.99,,,0.00,Acu-Link.com,2013-03-19 23:34:00,
2013-03-19 19:49:00,30.4,30.1,29.44,NNW,337,1.6,-999.0,99,-99.99,,,0.00,Acu-Link.com,2013-03-19 23:49:00,
2013-03-19 20:05:00,30.2,30.0,29.45,NW,315,2.7,-999.0,99,-99.99,,,0.00,Acu-Link.com,2013-03-20 00:05:00,
2013-03-19 20:20:00,29.8,29.6,29.45,NW,315,3.1,-999.0,99,-99.99,,,0.00,Acu-Link.com,2013-03-20 00:20:00,
2013-03-19 20:35:00,29.7,29.4,29.46,NW,315,1.6,-999.0,99,-99.99,,,0.00,Acu-Link.com,2013-03-20 00:35:00,
2013-03-19 20:50:00,29.5,29.2,29.46,NW,315,2.7,-999.0,99,-99.99,,,0.00,Acu-Link.com,2013-03-20 00:50:00,
2013-03-19 21:06:00,29.5,29.2,29.47,NW,315,2.2,-999.0,99,-99.99,,,0.00,Acu-Link.com,2013-03-20 01:06:00,
2013-03-19 21:36:00,29.1,28.9,29.49,WNW,292,1.1,-999.0,99,-99.99,,,0.00,Acu-Link.com,2013-03-20 01:36:00,
2013-03-19 21:51:00,28.9,28.4,29.49,North,0,1.6,-999.0,98,-99.99,,,0.00,Acu-Link.com,2013-03-20 01:51:00,
2013-03-19 22:06:00,28.6,28.3,29.49,NW,315,1.6,-999.0,99,-99.99,,,0.00,Acu-Link.com,2013-03-20 02:06:00,
2013-03-19 22:22:00,28.4,27.9,29.49,NW,315,1.6,-999.0,98,-99.99,,,0.00,Acu-Link.com,2013-03-20 02:22:00,
2013-03-19 22:37:00,28.2,28.0,29.49,NW,315,1.6,-999.0,99,-99.99,,,0.00,Acu-Link.com,2013-03-20 02:37:00,
2013-03-19 22:52:00,28.2,28.0,29.49,NW,315,1.6,-999.0,99,-99.99,,,0.00,Acu-Link.com,2013-03-20 02:52:00,
2013-03-19 23:07:00,27.9,27.6,29.48,NW,315,2.2,-999.0,99,-99.99,,,0.00,Acu-Link.com,2013-03-20 03:07:00,
2013-03-19 23:23:00,27.1,26.4,29.48,NW,315,2.2,-999.0,97,-99.99,,,0.00,Acu-Link.com,2013-03-20 03:23:00,
2013-03-19 23:38:00,26.6,25.6,29.48,NW,315,1.1,-999.0,96,-99.99,,,0.00,Acu-Link.com,2013-03-20 03:38:00,
2013-03-19 23:53:00,26.2,26.0,29.48,NW,315,1.6,-999.0,99,-99.99,,,0.00,Acu-Link.com,2013-03-20 03:53:00,